createdAt,value
2023-12-23T00:02:26.571Z,9.13
2023-12-23T00:04:54.752Z,8.15
2023-12-23T00:07:22.477Z,8.18
2023-12-23T00:09:50.779Z,8.85
2023-12-23T00:12:20.362Z,8.43
2023-12-23T00:14:48.160Z,7.65
2023-12-23T00:17:16.269Z,7.38
2023-12-23T00:19:44.553Z,7.88
2023-12-23T00:22:12.392Z,7.43
2023-12-23T00:24:40.116Z,7.30
2023-12-23T00:27:08.099Z,7.78
2023-12-23T00:29:37.184Z,8.00
2023-12-23T00:32:06.372Z,7.75
2023-12-23T00:34:34.550Z,7.93
2023-12-23T00:37:02.364Z,7.78
2023-12-23T00:39:30.637Z,7.72
2023-12-23T00:41:58.599Z,7.85
2023-12-23T00:44:26.312Z,8.13
2023-12-23T00:46:55.455Z,9.27
2023-12-23T00:49:23.719Z,7.80
2023-12-23T00:51:51.567Z,9.13
2023-12-23T00:54:20.519Z,8.75
2023-12-23T00:56:48.622Z,8.02
2023-12-23T00:59:16.585Z,8.32
2023-12-23T01:01:44.364Z,7.65
2023-12-23T01:04:13.929Z,7.93
2023-12-23T01:06:41.753Z,7.80
2023-12-23T01:09:09.377Z,8.68
2023-12-23T01:11:37.948Z,7.97
2023-12-23T01:14:06.538Z,8.32
2023-12-23T01:16:34.204Z,7.18
2023-12-23T01:19:02.380Z,7.72
2023-12-23T01:21:31.594Z,8.60
2023-12-23T01:23:59.232Z,7.65
2023-12-23T01:26:27.815Z,8.40
2023-12-23T01:28:56.101Z,8.13
2023-12-23T01:31:23.802Z,8.90
2023-12-23T01:33:52.763Z,7.75
2023-12-23T01:36:21.028Z,8.02
2023-12-23T01:38:50.139Z,7.75
2023-12-23T01:41:18.282Z,7.20
2023-12-23T01:43:46.133Z,7.40
2023-12-23T01:46:14.072Z,7.82
2023-12-23T01:48:45.972Z,7.65
2023-12-23T01:51:15.354Z,7.68
2023-12-23T01:53:44.273Z,7.38
2023-12-23T01:56:13.996Z,7.53
2023-12-23T01:58:43.118Z,7.10
2023-12-23T02:01:10.889Z,6.75
2023-12-23T02:03:39.289Z,6.72
2023-12-23T02:06:07.336Z,7.20
2023-12-23T02:08:35.090Z,7.57
2023-12-23T02:11:07.029Z,6.68
2023-12-23T02:13:44.350Z,7.38
2023-12-23T02:16:13.931Z,7.30
2023-12-23T02:18:42.297Z,6.60
2023-12-23T02:21:11.798Z,7.20
2023-12-23T02:23:40.320Z,6.78
2023-12-23T02:26:10.427Z,6.43
2023-12-23T02:28:40.209Z,6.80
2023-12-23T02:31:10.060Z,6.43
2023-12-23T02:33:38.568Z,6.50
2023-12-23T02:36:07.297Z,6.55
2023-12-23T02:38:36.598Z,6.75
2023-12-23T02:43:32.398Z,6.47
2023-12-23T02:46:00.104Z,6.55
2023-12-23T02:48:28.595Z,7.15
2023-12-23T02:50:56.654Z,6.57
2023-12-23T02:53:24.406Z,6.90
2023-12-23T02:55:53.971Z,6.32
2023-12-23T02:58:22.511Z,7.15
2023-12-23T03:00:50.197Z,6.57
2023-12-23T03:03:19.119Z,7.20
2023-12-23T03:05:47.090Z,6.85
2023-12-23T03:08:15.491Z,6.57
2023-12-23T03:10:43.521Z,6.53
2023-12-23T03:13:13.184Z,6.78
2023-12-23T03:18:08.318Z,7.45
2023-12-23T03:20:36.803Z,7.85
2023-12-23T03:23:04.829Z,7.28
2023-12-23T03:25:32.665Z,6.78
2023-12-23T03:28:00.737Z,6.63
2023-12-23T03:32:58.893Z,6.67
2023-12-23T03:35:26.932Z,6.78
2023-12-23T03:37:54.728Z,6.50
2023-12-23T03:40:22.437Z,7.07
2023-12-23T03:42:51.283Z,8.15
2023-12-23T03:45:21.435Z,7.13
2023-12-23T03:47:50.947Z,7.93
2023-12-23T03:50:18.753Z,8.05
2023-12-23T03:52:46.469Z,8.75
2023-12-23T03:55:14.281Z,7.93
2023-12-23T03:57:44.672Z,8.80
2023-12-23T04:00:15.869Z,9.63
2023-12-23T04:02:43.796Z,7.90
2023-12-23T04:05:13.092Z,8.77
2023-12-23T04:10:09.506Z,7.72
2023-12-23T04:12:37.164Z,9.57
2023-12-23T04:15:05.853Z,8.88
2023-12-23T04:17:33.666Z,10.13
2023-12-23T04:20:01.652Z,8.90
2023-12-23T04:22:31.536Z,8.48
2023-12-23T04:24:59.290Z,8.93
2023-12-23T04:27:27.421Z,9.25
2023-12-23T04:29:55.152Z,8.93
2023-12-23T04:32:22.901Z,9.82
2023-12-23T04:34:51.157Z,9.05
2023-12-23T04:37:19.204Z,9.30
2023-12-23T04:39:48.559Z,8.00
2023-12-23T04:42:16.323Z,8.95
2023-12-23T04:44:44.575Z,8.80
2023-12-23T04:47:12.863Z,9.48
2023-12-23T04:49:41.753Z,8.77
2023-12-23T04:52:09.862Z,8.75
2023-12-23T04:54:37.548Z,9.13
2023-12-23T04:57:07.278Z,8.52
2023-12-23T04:59:35.600Z,8.18
2023-12-23T05:02:04.471Z,9.15
2023-12-23T05:07:00.522Z,11.50
2023-12-23T05:09:28.192Z,11.75
2023-12-23T05:11:56.136Z,9.93
2023-12-23T05:14:26.114Z,10.20
2023-12-23T05:16:53.862Z,10.02
2023-12-23T05:19:22.729Z,9.57
2023-12-23T05:21:51.120Z,10.68
2023-12-23T05:24:18.928Z,10.55
2023-12-23T05:26:46.922Z,11.10
2023-12-23T05:29:14.928Z,10.27
2023-12-23T05:31:44.243Z,10.98
2023-12-23T05:34:11.968Z,10.95
2023-12-23T05:36:40.040Z,11.10
2023-12-23T05:39:07.734Z,12.15
2023-12-23T05:41:35.669Z,11.40
2023-12-23T05:44:05.344Z,10.90
2023-12-23T05:46:34.321Z,11.15
2023-12-23T05:49:03.492Z,11.77
2023-12-23T05:51:31.139Z,10.43
2023-12-23T05:53:58.897Z,10.57
2023-12-23T05:56:26.640Z,10.63
2023-12-23T05:58:54.372Z,10.90
2023-12-23T06:01:22.686Z,13.65
2023-12-23T06:03:50.467Z,12.13
2023-12-23T06:06:19.631Z,12.85
2023-12-23T06:08:47.967Z,11.70
2023-12-23T06:11:15.779Z,12.10
2023-12-23T06:13:43.456Z,12.77
2023-12-23T06:16:11.857Z,15.70
2023-12-23T06:18:39.627Z,15.00
2023-12-23T06:21:07.319Z,16.40
2023-12-23T06:23:37.075Z,16.85
2023-12-23T06:26:05.092Z,14.30
2023-12-23T06:28:32.765Z,15.10
2023-12-23T06:31:01.296Z,15.63
2023-12-23T06:33:29.157Z,17.20
2023-12-23T06:35:56.846Z,19.80
2023-12-23T06:38:24.827Z,20.50
2023-12-23T06:40:55.705Z,18.45
2023-12-23T06:43:44.950Z,16.05
2023-12-23T06:46:11.630Z,15.32
2023-12-23T06:48:40.188Z,18.02
2023-12-23T06:51:08.505Z,16.65
2023-12-23T06:53:36.896Z,16.63
2023-12-23T06:56:08.068Z,19.40
2023-12-23T06:58:36.249Z,19.02
2023-12-23T07:01:04.521Z,14.10
2023-12-23T07:03:32.297Z,16.40
2023-12-23T07:06:00.460Z,14.02
2023-12-23T07:08:28.269Z,13.95
2023-12-23T07:10:56.076Z,15.45
2023-12-23T07:13:25.252Z,17.00
2023-12-23T07:15:53.802Z,16.23
2023-12-23T07:18:21.632Z,13.98
2023-12-23T07:20:49.350Z,14.95
2023-12-23T07:23:17.678Z,15.15
2023-12-23T07:25:45.450Z,13.55
2023-12-23T07:28:13.210Z,14.88
2023-12-23T07:30:43.099Z,13.35
2023-12-23T07:35:38.629Z,14.05
2023-12-23T07:38:06.831Z,13.80
2023-12-23T07:40:36.229Z,13.60
2023-12-23T07:43:04.350Z,14.48
2023-12-23T07:45:33.158Z,14.03
2023-12-23T07:48:02.779Z,14.00
2023-12-23T07:52:58.230Z,15.07
2023-12-23T07:55:25.992Z,15.38
2023-12-23T07:57:54.094Z,12.57
2023-12-23T08:00:22.625Z,13.52
2023-12-23T08:02:50.608Z,13.75
2023-12-23T08:05:20.362Z,11.75
2023-12-23T08:07:48.826Z,12.60
2023-12-23T08:10:16.598Z,11.35
2023-12-23T08:12:44.584Z,12.45
2023-12-23T08:15:13.147Z,14.77
2023-12-23T08:17:41.644Z,13.57
2023-12-23T08:20:10.125Z,13.10
2023-12-23T08:22:41.210Z,12.75
2023-12-23T08:25:09.425Z,12.35
2023-12-23T08:27:38.721Z,12.52
2023-12-23T08:30:07.950Z,11.35
2023-12-23T08:32:35.889Z,12.30
2023-12-23T08:35:04.316Z,12.80
2023-12-23T08:37:32.709Z,13.77
2023-12-23T08:40:01.786Z,12.63
2023-12-23T08:42:29.785Z,12.30
2023-12-23T08:44:57.825Z,13.38
2023-12-23T08:47:26.066Z,12.02
2023-12-23T08:49:53.799Z,12.75
2023-12-23T08:52:21.926Z,12.02
2023-12-23T08:54:49.758Z,11.00
2023-12-23T08:57:18.875Z,12.23
2023-12-23T08:59:46.911Z,11.20
2023-12-23T09:02:14.676Z,11.27
2023-12-23T09:04:42.360Z,12.55
2023-12-23T09:07:10.414Z,11.07
2023-12-23T09:09:40.451Z,10.57
2023-12-23T09:12:08.639Z,10.82
2023-12-23T09:14:38.228Z,10.60
2023-12-23T09:19:33.564Z,12.80
2023-12-23T09:22:01.519Z,11.88
2023-12-23T09:24:29.206Z,11.38
2023-12-23T09:26:56.912Z,11.15
2023-12-23T09:29:25.036Z,11.15
2023-12-23T09:31:54.239Z,10.75
2023-12-23T09:34:22.325Z,11.15
2023-12-23T09:36:50.713Z,10.73
2023-12-23T09:39:18.376Z,11.10
2023-12-23T09:41:46.464Z,10.52
2023-12-23T09:44:15.262Z,10.75
2023-12-23T09:46:42.957Z,10.15
2023-12-23T09:49:12.703Z,10.80
2023-12-23T09:51:40.964Z,10.10
2023-12-23T09:54:11.298Z,10.02
2023-12-23T09:56:39.614Z,9.48
2023-12-23T09:59:09.114Z,11.87
2023-12-23T10:01:36.737Z,10.52
2023-12-23T10:04:04.630Z,11.18
2023-12-23T10:06:34.563Z,10.65
2023-12-23T10:11:29.522Z,9.90
2023-12-23T10:13:58.134Z,12.93
2023-12-23T10:16:26.058Z,10.48
2023-12-23T10:18:54.107Z,10.45
2023-12-23T10:21:22.312Z,10.50
2023-12-23T10:23:51.413Z,9.73
2023-12-23T10:26:19.405Z,11.05
2023-12-23T10:28:55.646Z,9.48
2023-12-23T10:31:25.539Z,11.07
2023-12-23T10:36:25.902Z,11.30
2023-12-23T10:39:03.724Z,10.00
2023-12-23T10:41:46.865Z,10.50
2023-12-23T10:44:15.887Z,10.05
2023-12-23T10:46:45.862Z,11.20
2023-12-23T10:49:14.769Z,10.63
2023-12-23T10:51:43.907Z,10.82
2023-12-23T10:54:13.762Z,11.18
2023-12-23T10:56:42.395Z,10.45
2023-12-23T10:59:11.952Z,11.10
2023-12-23T11:01:43.543Z,10.13
2023-12-23T11:04:11.431Z,9.90
2023-12-23T11:06:42.769Z,10.75
2023-12-23T11:09:13.736Z,11.00
2023-12-23T11:11:43.095Z,10.70
2023-12-23T11:14:10.929Z,10.63
2023-12-23T11:16:40.529Z,11.65
2023-12-23T11:19:09.165Z,11.20
2023-12-23T11:21:36.861Z,11.50
2023-12-23T11:24:35.778Z,10.90
2023-12-23T11:27:03.668Z,11.03
2023-12-23T11:29:31.412Z,10.68
2023-12-23T11:32:12.659Z,10.25
2023-12-23T11:34:41.449Z,10.15
2023-12-23T11:37:09.044Z,10.63
2023-12-23T11:39:39.645Z,11.30
2023-12-23T11:42:09.158Z,9.98
2023-12-23T11:44:38.059Z,10.70
2023-12-23T11:47:07.073Z,12.00
2023-12-23T11:49:35.093Z,11.35
2023-12-23T11:52:02.885Z,11.32
2023-12-23T11:54:31.362Z,10.77
2023-12-23T11:57:00.491Z,10.50
2023-12-23T11:59:28.249Z,10.68
2023-12-23T12:01:56.821Z,10.43
2023-12-23T12:04:25.939Z,10.00
2023-12-23T12:06:54.018Z,10.35
2023-12-23T12:09:22.498Z,11.95
2023-12-23T12:11:50.247Z,11.15
2023-12-23T12:14:19.915Z,11.55
2023-12-23T12:16:48.344Z,10.90
2023-12-23T12:19:17.547Z,13.00
2023-12-23T12:21:45.777Z,11.95
2023-12-23T12:24:14.096Z,10.25
2023-12-23T12:26:42.908Z,11.48
2023-12-23T12:29:10.796Z,10.83
2023-12-23T12:31:40.384Z,9.75
2023-12-23T12:34:08.050Z,9.98
2023-12-23T12:36:36.031Z,10.82
2023-12-23T12:39:04.454Z,10.38
2023-12-23T12:41:32.154Z,9.85
2023-12-23T12:44:00.197Z,10.32
2023-12-23T12:46:30.641Z,10.63
2023-12-23T12:49:01.984Z,11.02
2023-12-23T12:51:30.140Z,10.50
2023-12-23T12:53:58.113Z,11.50
2023-12-23T12:56:25.775Z,11.60
2023-12-23T12:58:54.754Z,11.25
2023-12-23T13:01:22.880Z,11.03
2023-12-23T13:03:50.743Z,9.75
2023-12-23T13:06:20.240Z,10.75
2023-12-23T13:08:48.090Z,9.93
2023-12-23T13:11:15.789Z,10.13
2023-12-23T13:13:44.170Z,11.30
2023-12-23T13:16:13.982Z,10.23
2023-12-23T13:21:26.327Z,10.10
2023-12-23T13:23:54.134Z,9.98
2023-12-23T13:26:21.867Z,11.45
2023-12-23T13:28:52.551Z,9.77
2023-12-23T13:31:21.486Z,10.05
2023-12-23T13:33:49.228Z,9.30
2023-12-23T13:36:17.680Z,10.10
2023-12-23T13:38:46.812Z,10.18
2023-12-23T13:41:14.910Z,8.80
2023-12-23T13:43:43.025Z,10.02
2023-12-23T13:46:10.700Z,10.32
2023-12-23T13:48:39.132Z,10.27
2023-12-23T13:51:07.361Z,9.50
2023-12-23T13:53:35.011Z,10.07
2023-12-23T13:56:04.895Z,10.38
2023-12-23T14:01:00.280Z,9.73
2023-12-23T14:03:28.282Z,10.52
2023-12-23T14:05:58.748Z,9.65
2023-12-23T14:08:26.649Z,9.82
2023-12-23T14:10:54.319Z,10.32
2023-12-23T14:13:23.840Z,8.85
2023-12-23T14:15:51.595Z,9.40
2023-12-23T14:18:19.292Z,9.98
2023-12-23T14:20:47.384Z,9.85
2023-12-23T14:23:15.143Z,10.07
2023-12-23T14:25:42.792Z,10.35
2023-12-23T14:28:11.139Z,9.77
2023-12-23T14:30:40.861Z,10.18
2023-12-23T14:33:08.925Z,10.25
2023-12-23T14:35:36.964Z,9.32
2023-12-23T14:38:05.057Z,10.23
2023-12-23T14:40:33.098Z,9.30
2023-12-23T14:43:01.118Z,10.50
2023-12-23T14:45:29.208Z,9.02
2023-12-23T14:47:59.120Z,9.38
2023-12-23T14:50:27.374Z,8.88
2023-12-23T14:52:55.411Z,10.75
2023-12-23T14:55:23.743Z,11.07
2023-12-23T14:57:51.882Z,10.38
2023-12-23T15:00:19.901Z,10.68
2023-12-23T15:02:47.949Z,11.00
2023-12-23T15:05:17.741Z,11.27
2023-12-23T15:07:45.568Z,9.80
2023-12-23T15:10:13.299Z,9.80
2023-12-23T15:12:42.163Z,11.43
2023-12-23T15:15:11.419Z,11.13
2023-12-23T15:17:39.404Z,11.97
2023-12-23T15:20:09.255Z,10.48
2023-12-23T15:22:38.535Z,10.13
2023-12-23T15:25:07.340Z,9.88
2023-12-23T15:27:35.377Z,11.02
2023-12-23T15:30:03.278Z,9.63
2023-12-23T15:32:30.974Z,8.90
2023-12-23T15:34:59.391Z,9.82
2023-12-23T15:37:27.150Z,11.45
2023-12-23T15:39:56.400Z,11.75
2023-12-23T15:42:24.807Z,10.70
2023-12-23T15:44:52.695Z,10.88
2023-12-23T15:47:21.097Z,11.00
2023-12-23T15:49:49.230Z,9.57
2023-12-23T15:52:17.005Z,10.75
2023-12-23T15:54:45.947Z,11.15
2023-12-23T15:57:15.083Z,11.65
2023-12-23T15:59:42.780Z,11.60
2023-12-23T16:02:10.759Z,9.52
2023-12-23T16:04:38.736Z,11.40
2023-12-23T16:07:06.522Z,9.85
2023-12-23T16:09:34.217Z,9.63
2023-12-23T16:12:02.239Z,9.68
2023-12-23T16:14:31.429Z,10.70
2023-12-23T16:16:59.497Z,11.85
2023-12-23T16:19:27.472Z,10.68
2023-12-23T16:21:56.162Z,11.45
2023-12-23T16:24:24.223Z,10.07
2023-12-23T16:26:51.983Z,9.88
2023-12-23T16:29:20.584Z,10.93
2023-12-23T16:31:49.854Z,9.20
2023-12-23T16:34:17.889Z,10.63
2023-12-23T16:36:46.086Z,9.82
2023-12-23T16:39:13.879Z,9.77
2023-12-23T16:41:42.022Z,10.80
2023-12-23T16:44:09.796Z,9.82
2023-12-23T16:46:37.495Z,9.35
2023-12-23T16:49:06.921Z,8.57
2023-12-23T16:51:34.604Z,8.35
2023-12-23T16:54:02.241Z,9.48
2023-12-23T16:56:30.765Z,8.45
2023-12-23T16:58:58.578Z,9.00
2023-12-23T17:01:26.608Z,9.27
2023-12-23T17:03:55.609Z,8.77
2023-12-23T17:06:24.790Z,10.10
2023-12-23T17:08:52.814Z,9.43
2023-12-23T17:11:21.533Z,9.57
2023-12-23T17:13:49.201Z,9.00
2023-12-23T17:16:17.855Z,9.10
2023-12-23T17:18:46.259Z,9.60
2023-12-23T17:21:14.152Z,9.73
2023-12-23T17:23:43.634Z,8.00
2023-12-23T17:28:39.737Z,9.07
2023-12-23T17:31:07.743Z,8.07
2023-12-23T17:33:36.181Z,8.85
2023-12-23T17:36:04.102Z,8.85
2023-12-23T17:38:32.824Z,9.25
2023-12-23T17:41:02.532Z,8.50
2023-12-23T17:43:30.263Z,8.55
2023-12-23T17:45:57.994Z,9.38
2023-12-23T17:48:26.053Z,9.00
2023-12-23T17:50:53.708Z,9.32
2023-12-23T17:53:24.399Z,8.65
2023-12-23T17:55:53.521Z,7.97
2023-12-23T17:58:22.658Z,8.80
2023-12-23T18:00:50.405Z,9.27
2023-12-23T18:03:18.590Z,8.98
2023-12-23T18:05:46.368Z,8.55
2023-12-23T18:08:14.922Z,7.85
2023-12-23T18:10:43.255Z,8.30
2023-12-23T18:13:10.929Z,8.82
2023-12-23T18:15:40.058Z,8.25
2023-12-23T18:18:08.384Z,8.98
2023-12-23T18:20:36.146Z,8.68
2023-12-23T18:23:04.312Z,8.40
2023-12-23T18:25:32.635Z,8.15
2023-12-23T18:28:00.268Z,8.65
2023-12-23T18:30:28.231Z,7.82
2023-12-23T18:32:58.218Z,8.35
2023-12-23T18:35:26.193Z,8.65
2023-12-23T18:37:54.003Z,8.82
2023-12-23T18:40:22.151Z,8.23
2023-12-23T18:42:49.993Z,7.95
2023-12-23T18:45:18.045Z,8.50
2023-12-23T18:47:46.591Z,8.95
2023-12-23T18:50:16.272Z,8.48
2023-12-23T18:55:11.808Z,8.88
2023-12-23T18:57:39.441Z,8.50
2023-12-23T19:00:08.889Z,8.32
2023-12-23T19:02:37.426Z,9.30
2023-12-23T19:05:05.906Z,7.80
2023-12-23T19:07:35.465Z,7.63
2023-12-23T19:10:03.931Z,8.23
2023-12-23T19:12:31.562Z,7.63
2023-12-23T19:15:00.064Z,7.70
2023-12-23T19:17:30.627Z,7.38
2023-12-23T19:19:58.338Z,8.00
2023-12-23T19:22:26.865Z,8.30
2023-12-23T19:24:56.677Z,7.97
2023-12-23T19:27:24.383Z,8.27
2023-12-23T19:29:52.170Z,8.30
2023-12-23T19:32:20.313Z,7.82
2023-12-23T19:34:47.971Z,8.05
2023-12-23T19:37:15.971Z,8.07
2023-12-23T19:39:52.202Z,8.23
2023-12-23T19:42:28.824Z,8.07
2023-12-23T19:44:56.911Z,8.52
2023-12-23T19:47:24.727Z,9.60
2023-12-23T19:49:53.253Z,8.52
2023-12-23T19:52:21.353Z,9.27
2023-12-23T19:54:49.068Z,8.20
2023-12-23T19:57:16.902Z,8.60
2023-12-23T19:59:46.760Z,39.72
2023-12-23T20:02:14.549Z,15.95
2023-12-23T20:04:42.254Z,10.13
2023-12-23T20:07:10.413Z,8.55
2023-12-23T20:09:38.568Z,8.35
2023-12-23T20:12:07.284Z,8.38
2023-12-23T20:14:35.653Z,8.50
2023-12-23T20:17:05.399Z,7.82
2023-12-23T20:22:00.758Z,8.38
2023-12-23T20:24:28.512Z,8.63
2023-12-23T20:26:56.191Z,7.88
2023-12-23T20:29:24.321Z,8.13
2023-12-23T20:31:52.123Z,8.23
2023-12-23T20:34:21.491Z,7.15
2023-12-23T20:36:49.964Z,7.85
2023-12-23T20:39:26.395Z,7.03
2023-12-23T20:41:56.602Z,7.95
2023-12-23T20:44:24.431Z,7.90
2023-12-23T20:46:52.707Z,8.18
2023-12-23T20:49:23.298Z,7.93
2023-12-23T20:51:51.020Z,6.72
2023-12-23T20:54:18.635Z,7.22
2023-12-23T20:56:46.728Z,7.20
2023-12-23T20:59:14.585Z,7.30
2023-12-23T21:01:42.267Z,7.07
2023-12-23T21:04:10.677Z,7.00
2023-12-23T21:06:39.885Z,7.70
2023-12-23T21:09:07.704Z,6.72
2023-12-23T21:11:36.195Z,6.70
2023-12-23T21:14:04.065Z,7.28
2023-12-23T21:16:31.840Z,7.30
2023-12-23T21:19:00.049Z,6.15
2023-12-23T21:21:27.955Z,6.45
2023-12-23T21:23:57.117Z,6.13
2023-12-23T21:26:25.172Z,6.50
2023-12-23T21:28:53.006Z,6.60
2023-12-23T21:31:20.753Z,6.30
2023-12-23T21:33:48.853Z,6.53
2023-12-23T21:36:16.769Z,6.88
2023-12-23T21:38:44.734Z,6.72
2023-12-23T21:41:14.272Z,6.45
2023-12-23T21:46:09.613Z,6.72
2023-12-23T21:48:38.116Z,6.00
2023-12-23T21:51:06.120Z,6.63
2023-12-23T21:53:34.288Z,6.70
2023-12-23T21:56:02.380Z,6.60
2023-12-23T21:58:31.593Z,6.20
2023-12-23T22:00:59.615Z,6.70
2023-12-23T22:03:27.751Z,6.60
2023-12-23T22:05:55.527Z,6.63
2023-12-23T22:08:23.869Z,6.43
2023-12-23T22:10:51.952Z,7.28
2023-12-23T22:13:19.723Z,6.40
2023-12-23T22:15:49.653Z,6.75
2023-12-23T22:18:17.509Z,6.70
2023-12-23T22:20:45.366Z,7.38
2023-12-23T22:23:13.384Z,6.78
2023-12-23T22:25:41.518Z,6.57
2023-12-23T22:28:09.270Z,6.25
2023-12-23T22:30:37.067Z,6.75
2023-12-23T22:33:06.938Z,7.20
2023-12-23T22:35:34.806Z,7.22
2023-12-23T22:38:02.888Z,6.75
2023-12-23T22:40:30.787Z,7.43
2023-12-23T22:42:58.550Z,7.18
2023-12-23T22:45:26.940Z,6.47
2023-12-23T22:47:55.210Z,6.82
2023-12-23T22:50:24.591Z,6.53
2023-12-23T22:55:20.251Z,6.53
2023-12-23T22:57:47.963Z,6.28
2023-12-23T23:00:16.447Z,6.35
2023-12-23T23:02:44.478Z,6.60
2023-12-23T23:05:12.604Z,6.97
2023-12-23T23:07:41.720Z,6.35
2023-12-23T23:10:11.060Z,6.50
2023-12-23T23:12:38.832Z,7.00
2023-12-23T23:15:07.324Z,6.88
2023-12-23T23:17:35.867Z,6.23
2023-12-23T23:20:03.846Z,6.45
2023-12-23T23:22:31.988Z,6.60
2023-12-23T23:25:01.915Z,6.57
2023-12-23T23:27:29.631Z,6.38
2023-12-23T23:29:57.623Z,5.90
2023-12-23T23:32:26.028Z,6.47
2023-12-23T23:35:01.212Z,7.00
2023-12-23T23:37:36.322Z,6.40
2023-12-23T23:40:06.513Z,7.68
2023-12-23T23:42:34.519Z,6.38
2023-12-23T23:45:02.461Z,6.78
2023-12-23T23:47:30.270Z,6.55
2023-12-23T23:49:58.667Z,6.20
2023-12-23T23:52:27.694Z,7.05
2023-12-23T23:54:55.777Z,6.30
2023-12-23T23:57:25.051Z,6.75
2023-12-23T23:59:52.761Z,6.15
